Time;durP1;ratioP1;P1;durP2;ratioP2;P2;SDS_P1;SDS_P2;PMS_P1;PMS_P2;Temp;Humidity;BMP_temperature;BMP_pressure;BME280_temperature;BME280_humidity;BME280_pressure;Samples;Min_cycle;Max_cycle;Signal;HPM_P1;HPM_P2
2021/10/03 00:01:53;;;;;;;4.40;1.98;;;;;;;;;;5085293;28;20457;-87
2021/10/03 00:04:20;;;;;;;3.47;2.20;;;;;;;;;;5085619;28;20439;-87
2021/10/03 00:06:46;;;;;;;4.05;2.08;;;;;;;;;;5082317;28;20141;-87
2021/10/03 00:09:12;;;;;;;3.05;2.22;;;;;;;;;;5068687;28;20073;-87
2021/10/03 00:11:39;;;;;;;2.75;2.00;;;;;;;;;;5082215;28;20524;-87
2021/10/03 00:14:06;;;;;;;3.33;2.10;;;;;;;;;;5085268;28;20020;-87
2021/10/03 00:16:32;;;;;;;4.95;2.20;;;;;;;;;;5080900;28;20055;-86
2021/10/03 00:18:59;;;;;;;3.58;2.20;;;;;;;;;;5086866;28;20059;-87
2021/10/03 00:21:26;;;;;;;3.53;2.40;;;;;;;;;;5088393;28;20055;-87
2021/10/03 00:23:52;;;;;;;3.83;2.28;;;;;;;;;;5058727;28;20055;-84
2021/10/03 00:26:18;;;;;;;3.08;2.30;;;;;;;;;;5081596;28;20093;-86
2021/10/03 00:28:45;;;;;;;4.03;2.20;;;;;;;;;;5083272;28;20522;-86
2021/10/03 00:31:11;;;;;;;3.58;2.30;;;;;;;;;;5050334;28;20091;-86
2021/10/03 00:33:38;;;;;;;3.25;1.73;;;;;;;;;;5082156;28;20044;-86
2021/10/03 00:36:04;;;;;;;4.47;2.47;;;;;;;;;;5066285;28;20605;-83
2021/10/03 00:38:31;;;;;;;3.47;2.30;;;;;;;;;;5067622;28;20064;-87
2021/10/03 00:40:58;;;;;;;4.63;2.47;;;;;;;;;;5065311;28;20448;-86
2021/10/03 00:43:25;;;;;;;3.15;2.20;;;;;;;;;;5078437;28;20056;-87
2021/10/03 00:45:52;;;;;;;3.35;2.15;;;;;;;;;;5065499;28;20056;-87
2021/10/03 00:48:20;;;;;;;3.17;2.22;;;;;;;;;;5058035;28;20113;-87
2021/10/03 00:50:49;;;;;;;5.22;3.10;;;;;;;;;;5083457;28;20051;-87
2021/10/03 00:53:16;;;;;;;2.70;1.90;;;;;;;;;;5079521;28;20090;-86
2021/10/03 00:55:43;;;;;;;3.00;2.08;;;;;;;;;;5082040;28;20059;-86
2021/10/03 00:58:10;;;;;;;2.80;2.10;;;;;;;;;;5082934;28;20148;-86
2021/10/03 01:00:37;;;;;;;3.53;1.77;;;;;;;;;;5086185;28;20047;-86
2021/10/03 01:03:04;;;;;;;3.47;2.50;;;;;;;;;;5051182;28;20085;-86
2021/10/03 01:05:31;;;;;;;3.63;2.10;;;;;;;;;;5080198;28;20094;-85
2021/10/03 01:07:58;;;;;;;3.05;2.15;;;;;;;;;;5042679;28;20053;-85
2021/10/03 01:10:25;;;;;;;3.20;1.95;;;;;;;;;;5060893;28;20121;-86
2021/10/03 01:12:56;;;;;;;4.18;2.53;;;;;;;;;;5082950;28;20068;-86
2021/10/03 01:15:22;;;;;;;3.47;2.20;;;;;;;;;;5064949;28;20098;-86
2021/10/03 01:17:49;;;;;;;4.68;2.38;;;;;;;;;;5066207;28;20441;-86
2021/10/03 01:20:15;;;;;;;3.03;2.20;;;;;;;;;;5085795;28;20139;-86
2021/10/03 01:22:42;;;;;;;2.78;2.00;;;;;;;;;;5080244;28;20063;-86
2021/10/03 01:25:09;;;;;;;2.42;1.77;;;;;;;;;;5057536;28;21720;-85
2021/10/03 01:27:36;;;;;;;3.90;2.10;;;;;;;;;;5062516;28;20103;-86
2021/10/03 01:30:04;;;;;;;3.75;2.15;;;;;;;;;;5083917;28;20185;-86
2021/10/03 01:32:30;;;;;;;3.08;2.00;;;;;;;;;;5072171;28;20390;-85
2021/10/03 01:34:57;;;;;;;3.25;2.22;;;;;;;;;;5081010;28;20047;-86
2021/10/03 01:37:25;;;;;;;2.58;2.00;;;;;;;;;;5079316;28;20055;-85
2021/10/03 01:39:52;;;;;;;3.72;2.40;;;;;;;;;;5084000;28;20056;-86
2021/10/03 01:42:18;;;;;;;3.85;2.22;;;;;;;;;;5078731;28;20067;-85
2021/10/03 01:44:45;;;;;;;3.38;2.38;;;;;;;;;;5086976;28;20039;-86
2021/10/03 01:47:11;;;;;;;2.60;1.80;;;;;;;;;;5091444;28;20058;-86
2021/10/03 01:49:38;;;;;;;4.68;2.40;;;;;;;;;;5093885;28;20085;-87
2021/10/03 01:52:04;;;;;;;2.63;2.00;;;;;;;;;;5091444;28;20040;-83
2021/10/03 01:54:33;;;;;;;3.38;2.20;;;;;;;;;;5078436;28;20241;-87
2021/10/03 01:57:01;;;;;;;3.10;2.20;;;;;;;;;;5088493;28;20089;-86
2021/10/03 01:59:28;;;;;;;5.07;2.38;;;;;;;;;;5083722;28;20063;-85
2021/10/03 02:01:55;;;;;;;3.53;2.15;;;;;;;;;;5081624;28;20059;-87
2021/10/03 02:04:22;;;;;;;3.63;2.03;;;;;;;;;;5085115;28;20050;-86
2021/10/03 02:06:53;;;;;;;3.03;2.10;;;;;;;;;;5088448;28;20091;-86
2021/10/03 02:09:22;;;;;;;4.28;2.15;;;;;;;;;;5086726;28;20068;-86
2021/10/03 02:11:49;;;;;;;3.30;2.10;;;;;;;;;;5079149;28;20095;-87
2021/10/03 02:14:18;;;;;;;3.45;2.10;;;;;;;;;;5084576;28;20116;-87
2021/10/03 02:16:45;;;;;;;2.78;2.00;;;;;;;;;;5086497;28;20037;-87
2021/10/03 02:19:11;;;;;;;4.28;2.35;;;;;;;;;;5086973;28;20060;-87
2021/10/03 02:21:38;;;;;;;2.67;1.85;;;;;;;;;;5084408;28;20059;-87
2021/10/03 02:24:06;;;;;;;2.45;1.98;;;;;;;;;;5082810;28;20076;-81
2021/10/03 02:26:33;;;;;;;2.83;2.17;;;;;;;;;;5087668;28;20059;-87
2021/10/03 02:29:00;;;;;;;4.50;2.38;;;;;;;;;;5070720;28;20461;-87
2021/10/03 02:31:26;;;;;;;4.78;2.63;;;;;;;;;;5086861;28;20632;-87
2021/10/03 02:33:53;;;;;;;3.08;2.15;;;;;;;;;;5084934;28;20064;-88
2021/10/03 02:36:21;;;;;;;2.95;2.05;;;;;;;;;;5069270;28;20081;-87
2021/10/03 02:38:48;;;;;;;2.92;2.03;;;;;;;;;;5086603;28;20039;-87
2021/10/03 02:41:16;;;;;;;3.22;2.13;;;;;;;;;;5069144;28;20040;-87
2021/10/03 02:43:44;;;;;;;3.30;1.83;;;;;;;;;;5082255;28;20080;-87
2021/10/03 02:46:11;;;;;;;3.42;2.10;;;;;;;;;;5081529;28;20056;-85
2021/10/03 02:48:38;;;;;;;2.40;1.75;;;;;;;;;;5088540;28;20083;-87
2021/10/03 02:51:05;;;;;;;4.18;2.15;;;;;;;;;;5077376;28;20062;-83
2021/10/03 02:53:31;;;;;;;3.85;2.30;;;;;;;;;;5082121;28;20071;-87
2021/10/03 02:55:58;;;;;;;2.95;2.10;;;;;;;;;;5082311;28;20075;-87
2021/10/03 02:58:24;;;;;;;3.25;2.20;;;;;;;;;;5083619;28;20117;-86
2021/10/03 03:00:52;;;;;;;3.05;2.08;;;;;;;;;;5053406;28;20062;-87
2021/10/03 03:03:19;;;;;;;4.18;2.10;;;;;;;;;;5087359;28;20074;-87
2021/10/03 03:05:45;;;;;;;2.75;2.00;;;;;;;;;;5058811;28;20052;-86
2021/10/03 03:08:11;;;;;;;2.45;1.98;;;;;;;;;;5060323;28;20075;-87
2021/10/03 03:10:38;;;;;;;3.38;2.10;;;;;;;;;;5085037;28;20059;-86
2021/10/03 03:13:04;;;;;;;3.72;1.92;;;;;;;;;;5078316;28;20445;-86
2021/10/03 03:15:31;;;;;;;2.88;2.05;;;;;;;;;;5052521;28;20625;-87
2021/10/03 03:17:57;;;;;;;2.75;2.05;;;;;;;;;;5070958;28;20060;-87
2021/10/03 03:20:24;;;;;;;4.53;2.33;;;;;;;;;;5077411;28;20032;-87
2021/10/03 03:22:51;;;;;;;2.90;2.30;;;;;;;;;;5081647;28;20059;-84
2021/10/03 03:25:17;;;;;;;4.40;1.83;;;;;;;;;;5066981;28;20511;-87
2021/10/03 03:27:44;;;;;;;3.35;2.03;;;;;;;;;;5053926;28;20078;-87
2021/10/03 03:30:12;;;;;;;3.13;2.13;;;;;;;;;;5081684;28;20060;-87
2021/10/03 03:32:38;;;;;;;3.22;2.13;;;;;;;;;;5063253;28;20117;-87
2021/10/03 03:35:05;;;;;;;3.25;2.05;;;;;;;;;;5081709;28;20040;-87
2021/10/03 03:37:32;;;;;;;3.42;2.55;;;;;;;;;;5060381;28;20055;-87
2021/10/03 03:39:58;;;;;;;3.10;2.05;;;;;;;;;;5079890;28;20075;-83
2021/10/03 03:42:25;;;;;;;4.78;2.53;;;;;;;;;;5064261;28;24983;-87
2021/10/03 03:44:51;;;;;;;3.83;2.40;;;;;;;;;;5068108;28;20134;-87
2021/10/03 03:47:17;;;;;;;4.43;2.28;;;;;;;;;;5071093;28;20542;-88
2021/10/03 03:49:44;;;;;;;2.97;2.10;;;;;;;;;;5072967;28;20056;-88
2021/10/03 03:52:11;;;;;;;3.05;2.10;;;;;;;;;;5085348;28;20117;-85
2021/10/03 03:54:37;;;;;;;3.50;2.20;;;;;;;;;;5080029;28;20059;-88
2021/10/03 03:57:04;;;;;;;4.13;2.42;;;;;;;;;;5087075;28;20074;-86
2021/10/03 03:59:30;;;;;;;3.05;2.25;;;;;;;;;;5075825;28;20619;-86
2021/10/03 04:01:56;;;;;;;3.38;2.15;;;;;;;;;;5069358;28;20032;-87
2021/10/03 04:04:23;;;;;;;4.00;2.40;;;;;;;;;;5086294;28;20121;-86
2021/10/03 04:06:49;;;;;;;4.60;2.75;;;;;;;;;;5062590;28;20048;-87
2021/10/03 04:09:16;;;;;;;3.92;2.67;;;;;;;;;;5067446;28;20056;-86
2021/10/03 04:11:42;;;;;;;3.70;2.47;;;;;;;;;;5085295;28;20059;-87
2021/10/03 04:14:08;;;;;;;3.65;2.55;;;;;;;;;;5083505;28;20074;-86
2021/10/03 04:16:35;;;;;;;3.80;2.30;;;;;;;;;;5071977;28;20036;-86
2021/10/03 04:19:01;;;;;;;3.33;2.08;;;;;;;;;;5069717;28;20024;-86
2021/10/03 04:21:28;;;;;;;3.00;2.40;;;;;;;;;;5046915;28;20057;-86
2021/10/03 04:23:54;;;;;;;3.35;2.50;;;;;;;;;;5057006;28;20059;-87
2021/10/03 04:26:21;;;;;;;3.72;2.58;;;;;;;;;;5064689;28;20083;-87
2021/10/03 04:28:47;;;;;;;3.97;2.53;;;;;;;;;;5066305;28;20052;-86
2021/10/03 04:31:13;;;;;;;3.22;2.60;;;;;;;;;;5065921;28;20075;-87
2021/10/03 04:33:43;;;;;;;4.70;2.65;;;;;;;;;;5047690;28;20056;-87
2021/10/03 04:36:10;;;;;;;3.25;2.10;;;;;;;;;;5060039;28;20061;-86
2021/10/03 04:38:37;;;;;;;3.78;2.60;;;;;;;;;;5055730;28;20568;-86
2021/10/03 04:41:03;;;;;;;2.70;2.20;;;;;;;;;;5059847;28;20064;-86
2021/10/03 04:43:30;;;;;;;3.47;2.40;;;;;;;;;;5070741;28;20056;-87
2021/10/03 04:45:57;;;;;;;4.75;2.95;;;;;;;;;;5065229;28;20099;-87
2021/10/03 04:48:23;;;;;;;4.07;2.95;;;;;;;;;;5063607;28;20063;-88
2021/10/03 04:50:50;;;;;;;3.60;2.53;;;;;;;;;;5070466;28;20052;-87
2021/10/03 04:53:16;;;;;;;4.00;2.53;;;;;;;;;;5060646;28;20067;-86
2021/10/03 04:55:43;;;;;;;4.68;2.80;;;;;;;;;;5082255;28;20060;-87
2021/10/03 04:58:10;;;;;;;4.13;2.40;;;;;;;;;;5084275;28;20067;-87
2021/10/03 05:00:36;;;;;;;4.00;2.40;;;;;;;;;;5082919;28;20055;-87
2021/10/03 05:03:02;;;;;;;4.28;2.88;;;;;;;;;;5068028;28;20051;-86
2021/10/03 05:05:29;;;;;;;4.05;2.70;;;;;;;;;;5078804;28;20500;-87
2021/10/03 05:07:55;;;;;;;4.07;2.40;;;;;;;;;;5087509;28;20128;-87
2021/10/03 05:10:22;;;;;;;5.57;2.92;;;;;;;;;;5079038;28;20086;-86
2021/10/03 05:12:48;;;;;;;4.60;2.92;;;;;;;;;;5071725;28;20445;-86
2021/10/03 05:15:15;;;;;;;5.22;3.33;;;;;;;;;;5057918;28;20522;-87
2021/10/03 05:17:41;;;;;;;4.40;3.03;;;;;;;;;;5091139;28;20032;-86
2021/10/03 05:20:08;;;;;;;4.20;2.90;;;;;;;;;;5082465;28;20060;-86
2021/10/03 05:22:35;;;;;;;4.32;2.70;;;;;;;;;;5084507;28;20085;-87
2021/10/03 05:25:04;;;;;;;4.13;2.63;;;;;;;;;;5066675;28;20047;-87
2021/10/03 05:27:31;;;;;;;5.65;2.80;;;;;;;;;;5078919;28;20416;-87
2021/10/03 05:29:57;;;;;;;5.40;3.13;;;;;;;;;;5084770;28;20557;-87
2021/10/03 05:32:24;;;;;;;5.18;3.13;;;;;;;;;;5065346;28;20117;-87
2021/10/03 05:34:50;;;;;;;4.88;3.10;;;;;;;;;;5078440;28;20129;-87
2021/10/03 05:37:18;;;;;;;4.25;2.70;;;;;;;;;;5065325;28;20100;-87
2021/10/03 05:39:44;;;;;;;4.15;2.90;;;;;;;;;;5063092;28;20051;-87
2021/10/03 05:42:11;;;;;;;4.20;3.03;;;;;;;;;;5083293;28;20107;-86
2021/10/03 05:44:37;;;;;;;4.43;3.10;;;;;;;;;;5055792;28;20052;-87
2021/10/03 05:47:04;;;;;;;3.78;2.85;;;;;;;;;;5083735;28;20048;-87
2021/10/03 05:49:30;;;;;;;5.72;2.72;;;;;;;;;;5082962;28;20503;-87
2021/10/03 05:51:56;;;;;;;4.28;2.83;;;;;;;;;;5085031;28;20487;-87
2021/10/03 05:54:23;;;;;;;4.65;3.13;;;;;;;;;;5079231;28;20066;-87
2021/10/03 05:56:49;;;;;;;4.60;2.90;;;;;;;;;;5076724;28;20041;-87
2021/10/03 05:59:16;;;;;;;4.82;2.75;;;;;;;;;;5064995;28;20059;-87
2021/10/03 06:01:42;;;;;;;5.97;3.13;;;;;;;;;;5064227;28;20040;-86
2021/10/03 06:04:09;;;;;;;7.68;3.10;;;;;;;;;;5062546;28;20064;-85
2021/10/03 06:06:36;;;;;;;4.47;2.92;;;;;;;;;;5062191;28;20074;-82
2021/10/03 06:09:02;;;;;;;4.85;2.72;;;;;;;;;;5060118;28;20063;-83
2021/10/03 06:11:29;;;;;;;4.40;2.70;;;;;;;;;;5076147;28;20071;-83
2021/10/03 06:13:57;;;;;;;9.18;2.90;;;;;;;;;;5067212;28;20104;-83
2021/10/03 06:16:23;;;;;;;4.32;2.63;;;;;;;;;;5059790;28;20113;-82
2021/10/03 06:18:50;;;;;;;4.55;2.63;;;;;;;;;;5058969;28;20500;-82
2021/10/03 06:21:17;;;;;;;4.10;2.90;;;;;;;;;;5063537;28;20039;-82
2021/10/03 06:23:44;;;;;;;5.63;2.72;;;;;;;;;;5059082;28;20067;-82
2021/10/03 06:26:14;;;;;;;4.47;2.45;;;;;;;;;;5083886;28;20060;-82
2021/10/03 06:28:43;;;;;;;7.40;2.70;;;;;;;;;;5055773;28;21898;-83
2021/10/03 06:31:10;;;;;;;4.05;2.63;;;;;;;;;;5074300;28;20105;-81
2021/10/03 06:33:37;;;;;;;4.53;2.70;;;;;;;;;;5069684;28;20060;-82
2021/10/03 06:36:04;;;;;;;4.00;2.85;;;;;;;;;;5067616;28;20060;-81
2021/10/03 06:38:31;;;;;;;7.00;2.83;;;;;;;;;;5084295;28;20056;-81
2021/10/03 06:40:57;;;;;;;6.80;2.95;;;;;;;;;;5086422;28;20516;-81
2021/10/03 06:43:24;;;;;;;4.15;2.60;;;;;;;;;;5068118;28;20508;-81
2021/10/03 06:45:50;;;;;;;4.07;2.70;;;;;;;;;;5086424;28;20059;-82
2021/10/03 06:48:16;;;;;;;6.60;2.90;;;;;;;;;;5065174;28;20077;-82
2021/10/03 06:50:43;;;;;;;3.30;2.47;;;;;;;;;;5083973;28;20079;-82
2021/10/03 06:53:09;;;;;;;5.00;2.65;;;;;;;;;;5083713;28;20060;-82
2021/10/03 06:55:36;;;;;;;6.70;2.95;;;;;;;;;;5081031;28;20596;-82
2021/10/03 06:58:03;;;;;;;4.60;2.95;;;;;;;;;;5078189;28;20055;-83
2021/10/03 07:00:30;;;;;;;4.55;3.13;;;;;;;;;;5083725;28;20172;-81
2021/10/03 07:02:56;;;;;;;4.15;2.80;;;;;;;;;;5082187;28;20153;-82
2021/10/03 07:05:23;;;;;;;4.70;3.10;;;;;;;;;;5064906;28;20072;-81
2021/10/03 07:07:49;;;;;;;3.75;2.88;;;;;;;;;;5084954;28;20055;-80
2021/10/03 07:10:15;;;;;;;4.68;2.95;;;;;;;;;;5071877;28;20128;-81
2021/10/03 07:12:42;;;;;;;5.00;2.97;;;;;;;;;;5064643;28;20133;-82
2021/10/03 07:15:08;;;;;;;4.90;3.00;;;;;;;;;;5062935;28;20101;-81
2021/10/03 07:17:35;;;;;;;4.40;3.08;;;;;;;;;;5082336;28;20051;-83
2021/10/03 07:20:02;;;;;;;4.25;2.70;;;;;;;;;;5068561;28;20067;-82
2021/10/03 07:22:28;;;;;;;5.10;3.13;;;;;;;;;;5075074;28;20071;-83
2021/10/03 07:24:55;;;;;;;4.13;2.80;;;;;;;;;;5060246;28;20424;-83
2021/10/03 07:27:21;;;;;;;4.88;3.10;;;;;;;;;;5057487;28;20117;-82
2021/10/03 07:29:48;;;;;;;4.47;2.70;;;;;;;;;;5083441;28;20070;-82
2021/10/03 07:32:16;;;;;;;4.90;3.17;;;;;;;;;;5082783;28;20127;-81
2021/10/03 07:34:43;;;;;;;19.35;3.95;;;;;;;;;;5081749;28;20035;-83
2021/10/03 07:37:09;;;;;;;4.03;2.83;;;;;;;;;;5063578;28;20109;-83
2021/10/03 07:39:36;;;;;;;4.82;3.20;;;;;;;;;;5083200;28;20054;-84
2021/10/03 07:42:03;;;;;;;4.20;3.05;;;;;;;;;;5082779;28;20075;-82
2021/10/03 07:44:31;;;;;;;4.07;2.92;;;;;;;;;;5080520;28;20117;-82
2021/10/03 07:46:57;;;;;;;4.85;3.47;;;;;;;;;;5081355;28;20060;-82
2021/10/03 07:49:24;;;;;;;5.55;3.13;;;;;;;;;;5079163;28;20056;-84
2021/10/03 07:51:50;;;;;;;5.03;2.80;;;;;;;;;;5054591;28;20052;-83
2021/10/03 07:54:17;;;;;;;5.43;3.35;;;;;;;;;;5062744;28;20060;-83
2021/10/03 07:56:43;;;;;;;4.75;2.78;;;;;;;;;;5077009;28;20466;-84
2021/10/03 07:59:10;;;;;;;9.57;3.10;;;;;;;;;;5048445;28;20025;-83
2021/10/03 08:01:36;;;;;;;5.60;3.33;;;;;;;;;;5062471;28;20060;-82
2021/10/03 08:04:03;;;;;;;4.55;3.30;;;;;;;;;;5076631;28;20048;-82
2021/10/03 08:06:31;;;;;;;4.75;3.00;;;;;;;;;;5076345;28;20205;-82
2021/10/03 08:08:58;;;;;;;5.13;2.75;;;;;;;;;;5054345;28;20072;-82
2021/10/03 08:11:24;;;;;;;4.53;3.22;;;;;;;;;;5065884;28;20036;-83
2021/10/03 08:13:51;;;;;;;4.80;2.95;;;;;;;;;;5079388;28;20064;-83
2021/10/03 08:16:18;;;;;;;7.13;3.22;;;;;;;;;;5080940;28;20084;-83
2021/10/03 08:18:45;;;;;;;6.43;3.33;;;;;;;;;;5085463;28;20068;-83
2021/10/03 08:21:12;;;;;;;5.20;3.00;;;;;;;;;;5083001;28;20674;-83
2021/10/03 08:23:39;;;;;;;4.90;2.80;;;;;;;;;;5067832;28;20064;-82
2021/10/03 08:26:05;;;;;;;4.75;3.15;;;;;;;;;;5054897;28;20045;-82
2021/10/03 08:28:32;;;;;;;6.70;3.05;;;;;;;;;;5069090;28;21409;-82
2021/10/03 08:30:58;;;;;;;3.40;2.60;;;;;;;;;;5062610;28;20500;-84
2021/10/03 08:33:25;;;;;;;5.22;3.10;;;;;;;;;;5045101;28;20520;-83
2021/10/03 08:35:51;;;;;;;4.72;3.15;;;;;;;;;;5069905;28;20044;-83
2021/10/03 08:38:18;;;;;;;4.68;2.78;;;;;;;;;;5074150;28;20055;-83
2021/10/03 08:40:44;;;;;;;4.85;3.17;;;;;;;;;;5064363;28;20060;-83
2021/10/03 08:43:10;;;;;;;4.40;2.70;;;;;;;;;;5075247;28;20551;-82
2021/10/03 08:45:44;;;;;;;5.55;2.90;;;;;;;;;;5063522;28;20060;-82
2021/10/03 08:48:14;;;;;;;7.00;3.38;;;;;;;;;;5064116;28;20058;-84
2021/10/03 08:50:42;;;;;;;3.60;2.75;;;;;;;;;;5067359;28;20444;-83
2021/10/03 08:53:09;;;;;;;4.57;3.50;;;;;;;;;;5058265;28;20452;-82
2021/10/03 08:55:35;;;;;;;4.65;3.03;;;;;;;;;;5066733;28;20060;-84
2021/10/03 08:58:02;;;;;;;4.97;3.15;;;;;;;;;;5069677;28;20029;-83
2021/10/03 09:00:29;;;;;;;5.20;3.20;;;;;;;;;;5059174;28;20060;-83
2021/10/03 09:03:00;;;;;;;4.55;3.00;;;;;;;;;;5059808;28;20033;-83
2021/10/03 09:05:28;;;;;;;3.88;2.60;;;;;;;;;;5082379;28;20258;-81
2021/10/03 09:07:59;;;;;;;4.65;3.28;;;;;;;;;;5073286;28;20433;-82
2021/10/03 09:10:26;;;;;;;4.95;3.22;;;;;;;;;;5077976;28;20048;-82
2021/10/03 09:12:55;;;;;;;4.30;2.80;;;;;;;;;;5065858;28;20723;-82
2021/10/03 09:15:22;;;;;;;4.53;3.03;;;;;;;;;;5080203;28;20064;-81
2021/10/03 09:17:49;;;;;;;6.15;3.05;;;;;;;;;;5060418;28;20125;-82
2021/10/03 09:20:18;;;;;;;4.20;2.85;;;;;;;;;;5051271;28;20036;-81
2021/10/03 09:22:55;;;;;;;4.80;3.00;;;;;;;;;;5063870;28;20048;-83
2021/10/03 09:25:37;;;;;;;4.65;3.03;;;;;;;;;;5080714;28;20080;-82
2021/10/03 09:28:06;;;;;;;4.10;2.95;;;;;;;;;;5077118;28;20039;-83
2021/10/03 09:30:33;;;;;;;4.80;2.80;;;;;;;;;;5045984;28;20400;-83
2021/10/03 09:33:00;;;;;;;4.50;2.92;;;;;;;;;;5072121;28;20056;-82
2021/10/03 09:35:28;;;;;;;4.13;3.13;;;;;;;;;;5079898;28;20028;-81
2021/10/03 09:37:55;;;;;;;3.78;2.50;;;;;;;;;;5078143;28;20090;-81
2021/10/03 09:40:23;;;;;;;4.50;2.90;;;;;;;;;;5080251;28;20074;-82
2021/10/03 09:42:53;;;;;;;3.65;2.60;;;;;;;;;;5084319;28;20105;-82
2021/10/03 09:45:22;;;;;;;5.30;3.00;;;;;;;;;;5081671;28;20064;-82
2021/10/03 09:48:07;;;;;;;4.30;2.85;;;;;;;;;;5078969;28;20445;-82
2021/10/03 09:50:34;;;;;;;3.90;2.47;;;;;;;;;;5059974;28;20115;-82
2021/10/03 09:53:01;;;;;;;5.03;3.10;;;;;;;;;;5067025;28;20060;-82
2021/10/03 09:55:28;;;;;;;4.65;2.60;;;;;;;;;;5069882;28;20121;-82
2021/10/03 09:57:56;;;;;;;4.45;3.00;;;;;;;;;;5081957;28;20036;-82
2021/10/03 10:00:23;;;;;;;4.10;2.95;;;;;;;;;;5072692;28;20133;-81
2021/10/03 10:02:50;;;;;;;3.67;2.65;;;;;;;;;;5059686;28;20134;-82
2021/10/03 10:05:24;;;;;;;4.25;2.90;;;;;;;;;;5063245;28;20057;-81
2021/10/03 10:07:50;;;;;;;5.05;2.65;;;;;;;;;;5074136;28;20039;-82
2021/10/03 10:10:17;;;;;;;3.88;2.63;;;;;;;;;;5050970;28;20033;-83
2021/10/03 10:12:46;;;;;;;4.13;2.83;;;;;;;;;;5064177;28;20036;-85
2021/10/03 10:15:13;;;;;;;3.97;2.67;;;;;;;;;;5084873;28;20068;-84
2021/10/03 10:17:40;;;;;;;3.50;2.42;;;;;;;;;;5070087;28;20040;-82
2021/10/03 10:20:24;;;;;;;5.40;3.13;;;;;;;;;;5066338;28;20052;-84
2021/10/03 10:22:56;;;;;;;4.90;3.25;;;;;;;;;;5076668;28;21227;-81
2021/10/03 10:25:42;;;;;;;6.57;3.28;;;;;;;;;;5057667;28;20083;-80
2021/10/03 10:28:28;;;;;;;4.47;3.05;;;;;;;;;;5074810;28;20041;-80
2021/10/03 10:31:10;;;;;;;5.05;3.38;;;;;;;;;;5073956;28;20036;-82
2021/10/03 10:33:56;;;;;;;5.85;3.30;;;;;;;;;;5084491;28;20110;-81
2021/10/03 10:36:35;;;;;;;6.03;3.38;;;;;;;;;;5075253;28;20068;-81
2021/10/03 10:39:12;;;;;;;4.93;3.40;;;;;;;;;;5061432;28;20090;-82
2021/10/03 10:41:41;;;;;;;7.25;3.63;;;;;;;;;;5085718;28;20059;-82
2021/10/03 10:44:29;;;;;;;4.47;3.17;;;;;;;;;;5078697;28;20056;-81
2021/10/03 10:47:01;;;;;;;4.55;3.30;;;;;;;;;;5065141;28;20052;-82
2021/10/03 10:49:37;;;;;;;5.18;3.22;;;;;;;;;;5076619;28;20060;-81
2021/10/03 10:52:19;;;;;;;9.32;3.65;;;;;;;;;;5087527;28;20448;-84
2021/10/03 10:55:09;;;;;;;4.97;3.67;;;;;;;;;;5079461;28;20074;-84
2021/10/03 10:57:53;;;;;;;5.72;3.67;;;;;;;;;;5061044;28;20354;-84
2021/10/03 11:00:20;;;;;;;5.05;3.55;;;;;;;;;;5065969;28;20573;-83
2021/10/03 11:02:51;;;;;;;4.60;3.33;;;;;;;;;;5066236;28;20504;-84
2021/10/03 11:05:40;;;;;;;4.60;3.25;;;;;;;;;;5056368;28;20106;-83
2021/10/03 11:08:09;;;;;;;5.90;4.00;;;;;;;;;;5065118;28;20063;-84
2021/10/03 11:10:54;;;;;;;4.45;3.15;;;;;;;;;;5054281;28;20399;-83
2021/10/03 11:13:41;;;;;;;4.97;3.40;;;;;;;;;;5075193;28;20835;-85
2021/10/03 11:16:24;;;;;;;4.15;3.28;;;;;;;;;;5063648;28;20040;-84
2021/10/03 11:19:04;;;;;;;4.55;3.08;;;;;;;;;;5071404;28;20035;-83
2021/10/03 11:21:40;;;;;;;6.03;3.30;;;;;;;;;;5061426;28;20032;-83
2021/10/03 11:24:08;;;;;;;4.72;3.55;;;;;;;;;;5047018;28;20033;-83
2021/10/03 11:26:54;;;;;;;4.80;3.20;;;;;;;;;;5053458;28;20037;-83
2021/10/03 11:29:25;;;;;;;4.75;3.15;;;;;;;;;;5061039;28;20556;-83
2021/10/03 11:31:55;;;;;;;4.47;3.25;;;;;;;;;;5077919;28;20063;-82
2021/10/03 11:34:33;;;;;;;6.03;3.70;;;;;;;;;;5055652;28;20056;-84
2021/10/03 13:32:18;;;;;;;5.85;3.60;;;;;;;;;;4991649;28;20058;-77
2021/10/03 13:35:05;;;;;;;5.63;3.50;;;;;;;;;;5001882;28;20057;-77
2021/10/03 13:37:52;;;;;;;6.03;3.55;;;;;;;;;;5007889;28;20027;-77
2021/10/03 13:40:39;;;;;;;4.95;3.60;;;;;;;;;;4997764;28;20034;-77
2021/10/03 13:43:28;;;;;;;6.63;3.78;;;;;;;;;;5003760;28;20038;-76
2021/10/03 13:46:15;;;;;;;5.15;4.18;;;;;;;;;;4991734;28;20038;-76
2021/10/03 13:49:01;;;;;;;5.65;3.78;;;;;;;;;;4993090;28;20038;-76
2021/10/03 13:51:48;;;;;;;5.53;3.78;;;;;;;;;;4978746;28;20522;-77
2021/10/03 13:54:35;;;;;;;6.28;4.03;;;;;;;;;;4991215;28;20084;-78
2021/10/03 13:57:21;;;;;;;5.80;3.70;;;;;;;;;;4981562;28;20037;-77
2021/10/03 14:00:09;;;;;;;7.10;4.13;;;;;;;;;;4970663;28;20030;-77
2021/10/03 14:02:56;;;;;;;5.22;3.60;;;;;;;;;;4979347;28;20034;-78
2021/10/03 14:05:42;;;;;;;5.28;3.95;;;;;;;;;;4987592;28;20038;-78
2021/10/03 14:08:29;;;;;;;5.43;3.65;;;;;;;;;;4978037;28;20031;-78
2021/10/03 14:11:16;;;;;;;5.10;3.70;;;;;;;;;;4990346;28;20033;-77
2021/10/03 14:14:03;;;;;;;7.07;3.88;;;;;;;;;;4984509;28;20442;-77
2021/10/03 14:16:49;;;;;;;6.18;3.95;;;;;;;;;;4980712;28;20030;-77
2021/10/03 14:19:36;;;;;;;6.22;3.50;;;;;;;;;;4969518;28;20046;-78
2021/10/03 14:22:23;;;;;;;4.50;3.35;;;;;;;;;;4989988;28;20031;-77
2021/10/03 14:25:10;;;;;;;5.47;3.90;;;;;;;;;;4977019;28;20049;-77
2021/10/03 14:27:56;;;;;;;5.25;3.72;;;;;;;;;;4980578;28;20027;-78
2021/10/03 14:30:43;;;;;;;5.05;4.10;;;;;;;;;;4985337;28;20042;-78
2021/10/03 14:33:30;;;;;;;5.80;3.75;;;;;;;;;;4977928;28;20398;-78
2021/10/03 14:36:16;;;;;;;4.65;3.58;;;;;;;;;;4989983;28;20031;-78
2021/10/03 14:39:03;;;;;;;6.03;4.30;;;;;;;;;;4988307;28;20030;-78
2021/10/03 14:41:50;;;;;;;5.35;3.80;;;;;;;;;;4979135;28;20036;-78
2021/10/03 14:44:36;;;;;;;5.75;3.78;;;;;;;;;;4967149;28;20051;-77
2021/10/03 14:47:23;;;;;;;6.78;3.80;;;;;;;;;;4977592;28;20456;-78
2021/10/03 14:50:11;;;;;;;5.43;3.90;;;;;;;;;;4978330;28;20035;-78
2021/10/03 14:52:58;;;;;;;5.20;3.63;;;;;;;;;;4978530;28;20037;-78
2021/10/03 14:55:44;;;;;;;5.15;3.63;;;;;;;;;;4978216;28;20045;-77
2021/10/03 14:58:31;;;;;;;5.95;3.50;;;;;;;;;;4969631;28;20046;-78
2021/10/03 15:01:18;;;;;;;4.80;3.55;;;;;;;;;;4991437;28;20045;-78
2021/10/03 15:04:05;;;;;;;5.07;3.35;;;;;;;;;;4976293;28;20026;-78
2021/10/03 15:06:51;;;;;;;5.18;3.33;;;;;;;;;;4967675;28;20026;-78
2021/10/03 15:09:38;;;;;;;5.68;4.00;;;;;;;;;;4970534;28;20039;-79
2021/10/03 15:12:25;;;;;;;5.78;3.80;;;;;;;;;;4983020;28;20040;-78
2021/10/03 15:15:13;;;;;;;7.70;3.97;;;;;;;;;;4977268;28;20046;-78
2021/10/03 15:17:59;;;;;;;5.30;3.58;;;;;;;;;;4987525;28;20458;-78
2021/10/03 15:20:46;;;;;;;6.57;3.60;;;;;;;;;;4991093;28;20037;-79
2021/10/03 15:23:33;;;;;;;4.55;3.40;;;;;;;;;;4974216;28;20027;-78
2021/10/03 15:26:19;;;;;;;4.68;3.35;;;;;;;;;;4984431;28;20031;-78
2021/10/03 15:29:06;;;;;;;5.82;3.65;;;;;;;;;;4980524;28;20038;-77
2021/10/03 15:31:53;;;;;;;5.53;3.90;;;;;;;;;;4998350;28;20054;-79
2021/10/03 15:34:40;;;;;;;6.40;3.70;;;;;;;;;;4986706;28;20050;-77
2021/10/03 15:37:27;;;;;;;5.95;4.32;;;;;;;;;;4987770;28;20038;-79
2021/10/03 15:40:14;;;;;;;5.57;3.97;;;;;;;;;;4989951;28;20040;-78
2021/10/03 15:43:02;;;;;;;9.30;4.18;;;;;;;;;;5002093;28;20049;-79
2021/10/03 15:45:49;;;;;;;5.80;3.67;;;;;;;;;;4982963;28;20027;-79
2021/10/03 15:48:36;;;;;;;5.88;4.40;;;;;;;;;;4986196;28;20038;-79
2021/10/03 15:51:22;;;;;;;5.97;3.92;;;;;;;;;;4984313;28;20049;-79
2021/10/03 15:54:09;;;;;;;7.40;4.38;;;;;;;;;;4988131;28;20497;-79
2021/10/03 15:56:56;;;;;;;5.93;4.28;;;;;;;;;;4977929;28;20521;-79
2021/10/03 15:59:44;;;;;;;5.15;3.75;;;;;;;;;;4977668;28;20064;-80
2021/10/03 16:02:31;;;;;;;9.20;4.78;;;;;;;;;;4988175;28;20555;-79
2021/10/03 16:05:18;;;;;;;6.38;4.50;;;;;;;;;;4973634;28;20496;-79
2021/10/03 16:08:06;;;;;;;7.80;4.55;;;;;;;;;;4973803;28;20042;-79
2021/10/03 16:10:52;;;;;;;5.40;3.67;;;;;;;;;;4974453;28;20033;-79
2021/10/03 16:13:39;;;;;;;7.72;4.43;;;;;;;;;;4975912;28;20038;-80
2021/10/03 16:16:26;;;;;;;6.63;4.05;;;;;;;;;;5000044;28;20065;-78
2021/10/03 16:19:12;;;;;;;5.50;3.92;;;;;;;;;;4986395;28;20026;-79
2021/10/03 16:22:00;;;;;;;5.55;4.38;;;;;;;;;;4975824;28;20048;-78
2021/10/03 16:24:46;;;;;;;6.78;4.20;;;;;;;;;;4983807;28;20018;-79
2021/10/03 16:27:36;;;;;;;5.85;4.45;;;;;;;;;;4986896;28;20035;-78
2021/10/03 16:30:23;;;;;;;6.15;4.13;;;;;;;;;;4988847;28;20053;-78
2021/10/03 16:33:09;;;;;;;6.35;4.13;;;;;;;;;;5000718;28;20398;-78
2021/10/03 16:35:56;;;;;;;6.72;4.05;;;;;;;;;;4985205;28;20049;-77
2021/10/03 16:38:43;;;;;;;5.85;3.80;;;;;;;;;;4976351;28;20053;-76
2021/10/03 16:41:30;;;;;;;8.02;4.82;;;;;;;;;;4983057;28;20114;-79
2021/10/03 16:44:16;;;;;;;7.30;5.38;;;;;;;;;;4979738;28;20033;-77
2021/10/03 16:47:03;;;;;;;5.78;4.15;;;;;;;;;;4973915;28;20423;-79
2021/10/03 16:49:51;;;;;;;10.45;4.20;;;;;;;;;;4977978;28;20035;-78
2021/10/03 16:52:37;;;;;;;5.25;3.85;;;;;;;;;;4974402;28;20027;-77
2021/10/03 16:55:26;;;;;;;6.60;3.97;;;;;;;;;;4977482;28;20050;-77
2021/10/03 16:58:13;;;;;;;5.75;4.45;;;;;;;;;;4958525;28;20119;-77
2021/10/03 17:01:00;;;;;;;7.95;4.18;;;;;;;;;;4976678;28;20038;-78
2021/10/03 17:03:47;;;;;;;5.68;3.90;;;;;;;;;;4992298;28;20042;-77
2021/10/03 17:06:33;;;;;;;6.60;4.53;;;;;;;;;;4971397;28;20035;-78
2021/10/03 17:09:20;;;;;;;5.57;4.05;;;;;;;;;;4976011;28;20403;-77